sensor_id;sensor_type;location;lat;lon;timestamp;P1;durP1;ratioP1;P2;durP2;ratioP2
64031;SDS011;50278;47.796;11.968;2023-02-21T00:01:41;1.55;;;0.90;;
64031;SDS011;50278;47.796;11.968;2023-02-21T00:04:25;2.47;;;1.23;;
64031;SDS011;50278;47.796;11.968;2023-02-21T00:07:09;1.85;;;0.82;;
64031;SDS011;50278;47.796;11.968;2023-02-21T00:09:54;1.92;;;1.00;;
64031;SDS011;50278;47.796;11.968;2023-02-21T00:12:38;1.75;;;1.00;;
64031;SDS011;50278;47.796;11.968;2023-02-21T00:15:22;1.60;;;0.90;;
64031;SDS011;50278;47.796;11.968;2023-02-21T00:18:06;1.90;;;1.30;;
64031;SDS011;50278;47.796;11.968;2023-02-21T00:20:51;3.72;;;0.90;;
64031;SDS011;50278;47.796;11.968;2023-02-21T00:23:35;1.33;;;0.85;;
64031;SDS011;50278;47.796;11.968;2023-02-21T00:26:20;2.20;;;0.73;;
64031;SDS011;50278;47.796;11.968;2023-02-21T00:29:05;1.40;;;1.05;;
64031;SDS011;50278;47.796;11.968;2023-02-21T00:31:54;1.77;;;0.70;;
64031;SDS011;50278;47.796;11.968;2023-02-21T00:34:44;2.17;;;0.80;;
64031;SDS011;50278;47.796;11.968;2023-02-21T00:37:29;1.83;;;0.73;;
64031;SDS011;50278;47.796;11.968;2023-02-21T00:40:14;1.75;;;0.75;;
64031;SDS011;50278;47.796;11.968;2023-02-21T00:42:58;1.85;;;0.80;;
64031;SDS011;50278;47.796;11.968;2023-02-21T00:45:43;0.82;;;0.60;;
64031;SDS011;50278;47.796;11.968;2023-02-21T00:48:27;1.67;;;0.60;;
64031;SDS011;50278;47.796;11.968;2023-02-21T00:51:12;2.08;;;0.93;;
64031;SDS011;50278;47.796;11.968;2023-02-21T00:53:56;2.08;;;0.73;;
64031;SDS011;50278;47.796;11.968;2023-02-21T00:56:41;3.15;;;0.57;;
64031;SDS011;50278;47.796;11.968;2023-02-21T00:59:25;1.52;;;0.60;;
64031;SDS011;50278;47.796;11.968;2023-02-21T01:02:09;2.15;;;1.13;;
64031;SDS011;50278;47.796;11.968;2023-02-21T01:04:54;3.47;;;0.43;;
64031;SDS011;50278;47.796;11.968;2023-02-21T01:07:39;2.38;;;0.50;;
64031;SDS011;50278;47.796;11.968;2023-02-21T01:10:23;1.55;;;0.50;;
64031;SDS011;50278;47.796;11.968;2023-02-21T01:13:07;1.27;;;0.40;;
64031;SDS011;50278;47.796;11.968;2023-02-21T01:15:52;0.65;;;0.35;;
64031;SDS011;50278;47.796;11.968;2023-02-21T01:18:36;0.52;;;0.25;;
64031;SDS011;50278;47.796;11.968;2023-02-21T01:21:20;1.13;;;0.43;;
64031;SDS011;50278;47.796;11.968;2023-02-21T01:24:05;0.40;;;0.10;;
64031;SDS011;50278;47.796;11.968;2023-02-21T01:26:50;1.27;;;0.43;;
64031;SDS011;50278;47.796;11.968;2023-02-21T01:29:34;0.85;;;0.30;;
64031;SDS011;50278;47.796;11.968;2023-02-21T01:32:19;1.27;;;0.50;;
64031;SDS011;50278;47.796;11.968;2023-02-21T01:35:03;0.70;;;0.50;;
64031;SDS011;50278;47.796;11.968;2023-02-21T01:37:49;0.80;;;0.40;;
64031;SDS011;50278;47.796;11.968;2023-02-21T01:40:36;1.50;;;0.38;;
64031;SDS011;50278;47.796;11.968;2023-02-21T01:43:22;2.45;;;0.30;;
64031;SDS011;50278;47.796;11.968;2023-02-21T01:46:09;1.10;;;0.30;;
64031;SDS011;50278;47.796;11.968;2023-02-21T01:48:59;2.47;;;0.30;;
64031;SDS011;50278;47.796;11.968;2023-02-21T01:51:47;1.00;;;0.43;;
64031;SDS011;50278;47.796;11.968;2023-02-21T01:54:33;0.80;;;0.40;;
64031;SDS011;50278;47.796;11.968;2023-02-21T01:57:20;0.95;;;0.30;;
64031;SDS011;50278;47.796;11.968;2023-02-21T02:00:06;1.25;;;0.45;;
64031;SDS011;50278;47.796;11.968;2023-02-21T02:02:56;1.13;;;0.55;;
64031;SDS011;50278;47.796;11.968;2023-02-21T02:05:42;0.63;;;0.45;;
64031;SDS011;50278;47.796;11.968;2023-02-21T02:08:31;0.70;;;0.20;;
64031;SDS011;50278;47.796;11.968;2023-02-21T02:20:25;1.55;;;0.40;;
64031;SDS011;50278;47.796;11.968;2023-02-21T02:26:25;2.10;;;0.50;;
64031;SDS011;50278;47.796;11.968;2023-02-21T02:32:13;1.92;;;0.52;;
64031;SDS011;50278;47.796;11.968;2023-02-21T02:34:44;1.98;;;0.40;;
64031;SDS011;50278;47.796;11.968;2023-02-21T02:45:35;0.63;;;0.40;;
64031;SDS011;50278;47.796;11.968;2023-02-21T02:48:32;1.67;;;0.57;;
64031;SDS011;50278;47.796;11.968;2023-02-21T02:51:04;1.13;;;0.55;;
64031;SDS011;50278;47.796;11.968;2023-02-21T02:53:32;1.00;;;0.30;;
64031;SDS011;50278;47.796;11.968;2023-02-21T02:56:03;0.90;;;0.50;;
64031;SDS011;50278;47.796;11.968;2023-02-21T02:58:55;1.27;;;0.35;;
64031;SDS011;50278;47.796;11.968;2023-02-21T03:02:06;0.85;;;0.50;;
64031;SDS011;50278;47.796;11.968;2023-02-21T03:07:18;2.65;;;0.50;;
64031;SDS011;50278;47.796;11.968;2023-02-21T03:12:29;1.17;;;0.50;;
64031;SDS011;50278;47.796;11.968;2023-02-21T03:15:10;2.70;;;0.40;;
64031;SDS011;50278;47.796;11.968;2023-02-21T03:17:42;1.70;;;0.30;;
64031;SDS011;50278;47.796;11.968;2023-02-21T03:20:14;0.55;;;0.28;;
64031;SDS011;50278;47.796;11.968;2023-02-21T03:22:41;2.10;;;0.93;;
64031;SDS011;50278;47.796;11.968;2023-02-21T03:25:09;2.08;;;1.13;;
64031;SDS011;50278;47.796;11.968;2023-02-21T03:27:36;0.90;;;0.50;;
64031;SDS011;50278;47.796;11.968;2023-02-21T03:30:20;0.85;;;0.40;;
64031;SDS011;50278;47.796;11.968;2023-02-21T03:32:49;1.48;;;0.50;;
64031;SDS011;50278;47.796;11.968;2023-02-21T03:35:18;1.40;;;0.40;;
64031;SDS011;50278;47.796;11.968;2023-02-21T03:37:49;1.48;;;0.52;;
64031;SDS011;50278;47.796;11.968;2023-02-21T03:40:25;0.90;;;0.40;;
64031;SDS011;50278;47.796;11.968;2023-02-21T03:42:58;1.17;;;0.50;;
64031;SDS011;50278;47.796;11.968;2023-02-21T03:45:28;1.40;;;0.43;;
64031;SDS011;50278;47.796;11.968;2023-02-21T03:48:03;0.93;;;0.35;;
64031;SDS011;50278;47.796;11.968;2023-02-21T03:50:30;3.55;;;0.98;;
64031;SDS011;50278;47.796;11.968;2023-02-21T03:52:55;1.15;;;0.47;;
64031;SDS011;50278;47.796;11.968;2023-02-21T03:55:22;0.68;;;0.38;;
64031;SDS011;50278;47.796;11.968;2023-02-21T03:57:48;0.85;;;0.50;;
64031;SDS011;50278;47.796;11.968;2023-02-21T04:00:14;1.23;;;0.50;;
64031;SDS011;50278;47.796;11.968;2023-02-21T04:02:48;1.52;;;0.63;;
64031;SDS011;50278;47.796;11.968;2023-02-21T04:05:36;2.10;;;0.60;;
64031;SDS011;50278;47.796;11.968;2023-02-21T04:08:02;1.85;;;0.40;;
64031;SDS011;50278;47.796;11.968;2023-02-21T04:10:28;0.88;;;0.55;;
64031;SDS011;50278;47.796;11.968;2023-02-21T04:12:54;0.82;;;0.47;;
64031;SDS011;50278;47.796;11.968;2023-02-21T04:15:20;1.45;;;0.60;;
64031;SDS011;50278;47.796;11.968;2023-02-21T04:17:45;1.00;;;0.68;;
64031;SDS011;50278;47.796;11.968;2023-02-21T04:20:12;2.10;;;0.90;;
64031;SDS011;50278;47.796;11.968;2023-02-21T04:22:44;0.60;;;0.40;;
64031;SDS011;50278;47.796;11.968;2023-02-21T04:25:09;2.17;;;0.60;;
64031;SDS011;50278;47.796;11.968;2023-02-21T04:27:41;2.05;;;0.60;;
64031;SDS011;50278;47.796;11.968;2023-02-21T04:30:08;1.02;;;0.38;;
64031;SDS011;50278;47.796;11.968;2023-02-21T04:32:35;1.10;;;0.32;;
64031;SDS011;50278;47.796;11.968;2023-02-21T04:35:06;4.60;;;0.50;;
64031;SDS011;50278;47.796;11.968;2023-02-21T04:37:32;1.30;;;0.57;;
64031;SDS011;50278;47.796;11.968;2023-02-21T04:39:57;1.77;;;0.35;;
64031;SDS011;50278;47.796;11.968;2023-02-21T04:42:23;1.65;;;0.50;;
64031;SDS011;50278;47.796;11.968;2023-02-21T04:44:48;1.88;;;0.45;;
64031;SDS011;50278;47.796;11.968;2023-02-21T04:47:14;1.50;;;0.50;;
64031;SDS011;50278;47.796;11.968;2023-02-21T04:49:40;3.13;;;1.00;;
64031;SDS011;50278;47.796;11.968;2023-02-21T04:52:05;1.30;;;0.90;;
64031;SDS011;50278;47.796;11.968;2023-02-21T04:54:31;1.98;;;1.33;;
64031;SDS011;50278;47.796;11.968;2023-02-21T04:56:57;1.73;;;1.05;;
64031;SDS011;50278;47.796;11.968;2023-02-21T04:59:22;1.90;;;0.57;;
64031;SDS011;50278;47.796;11.968;2023-02-21T05:01:48;0.80;;;0.40;;
64031;SDS011;50278;47.796;11.968;2023-02-21T05:04:13;0.85;;;0.40;;
64031;SDS011;50278;47.796;11.968;2023-02-21T05:06:39;2.75;;;0.50;;
64031;SDS011;50278;47.796;11.968;2023-02-21T05:09:04;1.15;;;0.40;;
64031;SDS011;50278;47.796;11.968;2023-02-21T05:11:31;1.42;;;0.50;;
64031;SDS011;50278;47.796;11.968;2023-02-21T05:14:01;3.15;;;0.70;;
64031;SDS011;50278;47.796;11.968;2023-02-21T05:16:26;1.73;;;0.40;;
64031;SDS011;50278;47.796;11.968;2023-02-21T05:18:52;2.28;;;0.40;;
64031;SDS011;50278;47.796;11.968;2023-02-21T05:21:18;2.08;;;0.40;;
64031;SDS011;50278;47.796;11.968;2023-02-21T05:23:44;1.23;;;0.45;;
64031;SDS011;50278;47.796;11.968;2023-02-21T05:26:20;1.30;;;0.50;;
64031;SDS011;50278;47.796;11.968;2023-02-21T05:28:50;1.75;;;0.50;;
64031;SDS011;50278;47.796;11.968;2023-02-21T05:31:16;7.35;;;0.50;;
64031;SDS011;50278;47.796;11.968;2023-02-21T05:33:42;0.85;;;0.40;;
64031;SDS011;50278;47.796;11.968;2023-02-21T05:36:08;1.58;;;0.40;;
64031;SDS011;50278;47.796;11.968;2023-02-21T05:38:37;0.63;;;0.28;;
64031;SDS011;50278;47.796;11.968;2023-02-21T05:41:09;1.10;;;0.40;;
64031;SDS011;50278;47.796;11.968;2023-02-21T05:43:34;1.88;;;0.40;;
64031;SDS011;50278;47.796;11.968;2023-02-21T05:46:00;1.02;;;0.50;;
64031;SDS011;50278;47.796;11.968;2023-02-21T05:48:25;2.60;;;0.65;;
64031;SDS011;50278;47.796;11.968;2023-02-21T05:50:51;1.33;;;0.60;;
64031;SDS011;50278;47.796;11.968;2023-02-21T05:53:16;1.92;;;0.40;;
64031;SDS011;50278;47.796;11.968;2023-02-21T05:55:42;1.42;;;0.43;;
64031;SDS011;50278;47.796;11.968;2023-02-21T05:58:07;3.28;;;0.43;;
64031;SDS011;50278;47.796;11.968;2023-02-21T06:00:33;1.05;;;0.70;;
64031;SDS011;50278;47.796;11.968;2023-02-21T06:02:58;2.42;;;0.43;;
64031;SDS011;50278;47.796;11.968;2023-02-21T06:05:24;1.35;;;0.63;;
64031;SDS011;50278;47.796;11.968;2023-02-21T06:07:50;1.73;;;0.63;;
64031;SDS011;50278;47.796;11.968;2023-02-21T06:10:16;2.95;;;0.63;;
64031;SDS011;50278;47.796;11.968;2023-02-21T06:12:43;1.10;;;0.50;;
64031;SDS011;50278;47.796;11.968;2023-02-21T06:15:09;1.95;;;1.10;;
64031;SDS011;50278;47.796;11.968;2023-02-21T06:17:35;2.42;;;0.80;;
64031;SDS011;50278;47.796;11.968;2023-02-21T06:20:02;3.78;;;0.77;;
64031;SDS011;50278;47.796;11.968;2023-02-21T06:22:29;3.75;;;1.30;;
64031;SDS011;50278;47.796;11.968;2023-02-21T06:24:54;3.83;;;1.30;;
64031;SDS011;50278;47.796;11.968;2023-02-21T06:27:20;10.90;;;3.28;;
64031;SDS011;50278;47.796;11.968;2023-02-21T06:29:45;1.52;;;0.88;;
64031;SDS011;50278;47.796;11.968;2023-02-21T06:32:11;4.00;;;1.00;;
64031;SDS011;50278;47.796;11.968;2023-02-21T06:34:36;2.17;;;1.00;;
64031;SDS011;50278;47.796;11.968;2023-02-21T06:37:02;5.55;;;0.70;;
64031;SDS011;50278;47.796;11.968;2023-02-21T06:39:27;4.63;;;1.13;;
64031;SDS011;50278;47.796;11.968;2023-02-21T06:41:53;2.20;;;0.80;;
64031;SDS011;50278;47.796;11.968;2023-02-21T06:44:19;3.45;;;1.38;;
64031;SDS011;50278;47.796;11.968;2023-02-21T06:46:44;1.50;;;0.70;;
64031;SDS011;50278;47.796;11.968;2023-02-21T06:49:12;3.17;;;1.48;;
64031;SDS011;50278;47.796;11.968;2023-02-21T06:51:38;1.60;;;0.90;;
64031;SDS011;50278;47.796;11.968;2023-02-21T06:54:05;1.88;;;0.90;;
64031;SDS011;50278;47.796;11.968;2023-02-21T06:56:34;1.75;;;0.80;;
64031;SDS011;50278;47.796;11.968;2023-02-21T06:59:00;1.35;;;0.90;;
64031;SDS011;50278;47.796;11.968;2023-02-21T07:01:27;1.75;;;0.90;;
64031;SDS011;50278;47.796;11.968;2023-02-21T07:03:54;1.55;;;0.80;;
64031;SDS011;50278;47.796;11.968;2023-02-21T07:06:20;6.55;;;2.10;;
64031;SDS011;50278;47.796;11.968;2023-02-21T07:08:46;10.50;;;1.40;;
64031;SDS011;50278;47.796;11.968;2023-02-21T07:11:12;12.63;;;2.20;;
64031;SDS011;50278;47.796;11.968;2023-02-21T07:13:39;7.90;;;1.85;;
64031;SDS011;50278;47.796;11.968;2023-02-21T07:16:07;2.38;;;1.10;;
64031;SDS011;50278;47.796;11.968;2023-02-21T07:18:32;3.63;;;0.88;;
64031;SDS011;50278;47.796;11.968;2023-02-21T07:20:58;2.33;;;1.08;;
64031;SDS011;50278;47.796;11.968;2023-02-21T07:23:23;2.53;;;0.90;;
64031;SDS011;50278;47.796;11.968;2023-02-21T07:25:49;2.45;;;0.90;;
64031;SDS011;50278;47.796;11.968;2023-02-21T07:28:15;1.77;;;0.77;;
64031;SDS011;50278;47.796;11.968;2023-02-21T07:30:48;3.03;;;2.05;;
64031;SDS011;50278;47.796;11.968;2023-02-21T07:33:13;2.65;;;0.90;;
64031;SDS011;50278;47.796;11.968;2023-02-21T07:35:39;2.38;;;0.98;;
64031;SDS011;50278;47.796;11.968;2023-02-21T07:38:04;2.70;;;1.40;;
64031;SDS011;50278;47.796;11.968;2023-02-21T07:40:30;7.90;;;1.58;;
64031;SDS011;50278;47.796;11.968;2023-02-21T07:42:55;3.63;;;1.20;;
64031;SDS011;50278;47.796;11.968;2023-02-21T07:45:21;5.28;;;2.00;;
64031;SDS011;50278;47.796;11.968;2023-02-21T07:47:46;3.05;;;1.63;;
64031;SDS011;50278;47.796;11.968;2023-02-21T07:50:15;11.32;;;3.30;;
64031;SDS011;50278;47.796;11.968;2023-02-21T07:52:41;8.93;;;3.28;;
64031;SDS011;50278;47.796;11.968;2023-02-21T07:55:07;7.53;;;2.80;;
64031;SDS011;50278;47.796;11.968;2023-02-21T07:57:33;6.53;;;2.83;;
64031;SDS011;50278;47.796;11.968;2023-02-21T07:59:58;7.18;;;2.90;;
64031;SDS011;50278;47.796;11.968;2023-02-21T08:02:24;6.72;;;3.00;;
64031;SDS011;50278;47.796;11.968;2023-02-21T08:04:50;7.97;;;3.40;;
64031;SDS011;50278;47.796;11.968;2023-02-21T08:07:16;6.20;;;3.83;;
64031;SDS011;50278;47.796;11.968;2023-02-21T08:09:41;6.18;;;2.50;;
64031;SDS011;50278;47.796;11.968;2023-02-21T08:12:07;4.82;;;1.50;;
64031;SDS011;50278;47.796;11.968;2023-02-21T08:14:33;3.65;;;2.15;;
64031;SDS011;50278;47.796;11.968;2023-02-21T08:16:58;2.83;;;1.65;;
64031;SDS011;50278;47.796;11.968;2023-02-21T08:19:24;3.10;;;1.48;;
64031;SDS011;50278;47.796;11.968;2023-02-21T08:21:49;5.80;;;1.50;;
64031;SDS011;50278;47.796;11.968;2023-02-21T08:24:15;4.05;;;1.40;;
64031;SDS011;50278;47.796;11.968;2023-02-21T08:26:42;2.40;;;1.27;;
64031;SDS011;50278;47.796;11.968;2023-02-21T08:29:09;4.68;;;1.20;;
64031;SDS011;50278;47.796;11.968;2023-02-21T08:31:39;2.97;;;1.40;;
64031;SDS011;50278;47.796;11.968;2023-02-21T08:34:06;4.50;;;1.75;;
64031;SDS011;50278;47.796;11.968;2023-02-21T08:36:33;4.70;;;1.02;;
64031;SDS011;50278;47.796;11.968;2023-02-21T08:39:00;4.30;;;1.25;;
64031;SDS011;50278;47.796;11.968;2023-02-21T08:41:33;2.33;;;1.10;;
64031;SDS011;50278;47.796;11.968;2023-02-21T08:44:06;5.30;;;1.23;;
64031;SDS011;50278;47.796;11.968;2023-02-21T08:46:33;4.30;;;1.15;;
64031;SDS011;50278;47.796;11.968;2023-02-21T08:48:59;6.43;;;1.48;;
64031;SDS011;50278;47.796;11.968;2023-02-21T08:51:25;13.18;;;2.13;;
64031;SDS011;50278;47.796;11.968;2023-02-21T08:53:51;3.67;;;1.30;;
64031;SDS011;50278;47.796;11.968;2023-02-21T08:56:18;2.15;;;1.10;;
64031;SDS011;50278;47.796;11.968;2023-02-21T08:58:44;3.08;;;1.10;;
64031;SDS011;50278;47.796;11.968;2023-02-21T09:01:10;2.97;;;1.20;;
64031;SDS011;50278;47.796;11.968;2023-02-21T09:03:35;3.33;;;1.00;;
64031;SDS011;50278;47.796;11.968;2023-02-21T09:06:01;2.53;;;0.95;;
64031;SDS011;50278;47.796;11.968;2023-02-21T09:08:27;3.20;;;0.90;;
64031;SDS011;50278;47.796;11.968;2023-02-21T09:10:55;7.32;;;1.38;;
64031;SDS011;50278;47.796;11.968;2023-02-21T09:13:27;1.27;;;0.75;;
64031;SDS011;50278;47.796;11.968;2023-02-21T09:15:54;2.22;;;0.90;;
64031;SDS011;50278;47.796;11.968;2023-02-21T09:18:20;3.20;;;1.20;;
64031;SDS011;50278;47.796;11.968;2023-02-21T09:20:46;1.95;;;1.08;;
64031;SDS011;50278;47.796;11.968;2023-02-21T09:23:19;2.47;;;1.10;;
64031;SDS011;50278;47.796;11.968;2023-02-21T09:25:48;1.25;;;0.80;;
64031;SDS011;50278;47.796;11.968;2023-02-21T09:28:14;1.40;;;0.75;;
64031;SDS011;50278;47.796;11.968;2023-02-21T09:30:40;2.30;;;1.15;;
64031;SDS011;50278;47.796;11.968;2023-02-21T09:33:05;2.38;;;0.70;;
64031;SDS011;50278;47.796;11.968;2023-02-21T09:35:31;2.47;;;0.95;;
64031;SDS011;50278;47.796;11.968;2023-02-21T09:37:57;5.28;;;1.27;;
64031;SDS011;50278;47.796;11.968;2023-02-21T09:40:31;2.67;;;0.90;;
64031;SDS011;50278;47.796;11.968;2023-02-21T09:43:14;2.97;;;1.08;;
64031;SDS011;50278;47.796;11.968;2023-02-21T09:45:45;4.10;;;1.08;;
64031;SDS011;50278;47.796;11.968;2023-02-21T09:48:16;1.98;;;0.88;;
64031;SDS011;50278;47.796;11.968;2023-02-21T09:50:47;2.55;;;1.13;;
64031;SDS011;50278;47.796;11.968;2023-02-21T09:55:44;1.75;;;0.90;;
64031;SDS011;50278;47.796;11.968;2023-02-21T09:58:11;2.85;;;1.08;;
64031;SDS011;50278;47.796;11.968;2023-02-21T10:00:38;3.15;;;0.98;;
64031;SDS011;50278;47.796;11.968;2023-02-21T10:27:56;4.38;;;0.90;;
64031;SDS011;50278;47.796;11.968;2023-02-21T10:30:28;3.60;;;1.10;;
64031;SDS011;50278;47.796;11.968;2023-02-21T10:32:57;2.00;;;1.10;;
64031;SDS011;50278;47.796;11.968;2023-02-21T10:35:22;2.47;;;1.20;;
64031;SDS011;50278;47.796;11.968;2023-02-21T10:38:08;3.63;;;1.02;;
64031;SDS011;50278;47.796;11.968;2023-02-21T10:40:51;1.73;;;0.63;;
64031;SDS011;50278;47.796;11.968;2023-02-21T10:45:59;0.82;;;0.57;;
64031;SDS011;50278;47.796;11.968;2023-02-21T10:48:39;2.67;;;0.75;;
64031;SDS011;50278;47.796;11.968;2023-02-21T10:51:13;2.70;;;0.90;;
64031;SDS011;50278;47.796;11.968;2023-02-21T10:53:42;2.08;;;0.55;;
64031;SDS011;50278;47.796;11.968;2023-02-21T11:03:58;2.03;;;0.90;;
64031;SDS011;50278;47.796;11.968;2023-02-21T11:06:36;2.90;;;0.90;;
64031;SDS011;50278;47.796;11.968;2023-02-21T11:15:14;1.40;;;0.70;;
64031;SDS011;50278;47.796;11.968;2023-02-21T11:17:41;1.33;;;0.50;;
64031;SDS011;50278;47.796;11.968;2023-02-21T11:22:42;1.88;;;1.00;;
64031;SDS011;50278;47.796;11.968;2023-02-21T11:25:28;1.25;;;0.70;;
64031;SDS011;50278;47.796;11.968;2023-02-21T11:28:04;1.30;;;0.60;;
64031;SDS011;50278;47.796;11.968;2023-02-21T11:30:33;3.17;;;0.90;;
64031;SDS011;50278;47.796;11.968;2023-02-21T11:33:01;3.25;;;0.77;;
64031;SDS011;50278;47.796;11.968;2023-02-21T11:35:47;2.70;;;0.70;;
64031;SDS011;50278;47.796;11.968;2023-02-21T11:38:34;2.28;;;0.93;;
64031;SDS011;50278;47.796;11.968;2023-02-21T13:17:11;0.93;;;0.60;;
64031;SDS011;50278;47.796;11.968;2023-02-21T13:29:58;1.05;;;0.60;;
64031;SDS011;50278;47.796;11.968;2023-02-21T13:32:29;1.08;;;0.50;;
64031;SDS011;50278;47.796;11.968;2023-02-21T13:35:04;2.22;;;1.02;;
64031;SDS011;50278;47.796;11.968;2023-02-21T13:37:32;1.33;;;0.73;;
64031;SDS011;50278;47.796;11.968;2023-02-21T13:40:03;1.55;;;0.65;;
64031;SDS011;50278;47.796;11.968;2023-02-21T13:42:32;2.13;;;0.63;;
64031;SDS011;50278;47.796;11.968;2023-02-21T13:45:07;1.65;;;0.60;;
64031;SDS011;50278;47.796;11.968;2023-02-21T13:55:37;3.90;;;0.68;;
64031;SDS011;50278;47.796;11.968;2023-02-21T14:10:56;1.58;;;0.60;;
64031;SDS011;50278;47.796;11.968;2023-02-21T14:13:31;0.97;;;0.43;;
64031;SDS011;50278;47.796;11.968;2023-02-21T14:26:40;1.05;;;0.47;;
64031;SDS011;50278;47.796;11.968;2023-02-21T14:34:38;1.35;;;0.50;;
64031;SDS011;50278;47.796;11.968;2023-02-21T14:45:29;3.00;;;0.57;;
64031;SDS011;50278;47.796;11.968;2023-02-21T15:04:16;2.10;;;1.00;;
64031;SDS011;50278;47.796;11.968;2023-02-21T15:06:42;2.55;;;1.10;;
64031;SDS011;50278;47.796;11.968;2023-02-21T15:09:19;1.23;;;0.82;;
64031;SDS011;50278;47.796;11.968;2023-02-21T15:11:46;2.00;;;0.80;;
64031;SDS011;50278;47.796;11.968;2023-02-21T15:16:47;2.05;;;1.20;;
64031;SDS011;50278;47.796;11.968;2023-02-21T15:19:22;2.53;;;1.67;;
64031;SDS011;50278;47.796;11.968;2023-02-21T15:22:04;1.70;;;0.90;;
64031;SDS011;50278;47.796;11.968;2023-02-21T15:24:39;2.20;;;0.90;;
64031;SDS011;50278;47.796;11.968;2023-02-21T15:27:08;1.70;;;0.93;;
64031;SDS011;50278;47.796;11.968;2023-02-21T15:29:38;2.25;;;0.80;;
64031;SDS011;50278;47.796;11.968;2023-02-21T15:32:05;1.67;;;0.70;;
64031;SDS011;50278;47.796;11.968;2023-02-21T15:34:41;2.67;;;0.60;;
64031;SDS011;50278;47.796;11.968;2023-02-21T15:37:27;0.70;;;0.50;;
64031;SDS011;50278;47.796;11.968;2023-02-21T15:39:56;3.42;;;0.70;;
64031;SDS011;50278;47.796;11.968;2023-02-21T15:42:25;2.45;;;0.50;;
64031;SDS011;50278;47.796;11.968;2023-02-21T15:44:54;0.75;;;0.43;;
64031;SDS011;50278;47.796;11.968;2023-02-21T15:47:22;0.85;;;0.43;;
64031;SDS011;50278;47.796;11.968;2023-02-21T15:50:27;2.25;;;0.52;;
64031;SDS011;50278;47.796;11.968;2023-02-21T15:52:43;2.85;;;0.57;;
64031;SDS011;50278;47.796;11.968;2023-02-21T15:57:40;1.60;;;0.60;;
64031;SDS011;50278;47.796;11.968;2023-02-21T16:00:39;1.20;;;0.70;;
64031;SDS011;50278;47.796;11.968;2023-02-21T16:09:02;5.50;;;0.88;;
64031;SDS011;50278;47.796;11.968;2023-02-21T16:19:52;2.28;;;0.70;;
64031;SDS011;50278;47.796;11.968;2023-02-21T16:24:45;1.90;;;0.60;;
64031;SDS011;50278;47.796;11.968;2023-02-21T16:27:12;1.77;;;0.60;;
64031;SDS011;50278;47.796;11.968;2023-02-21T16:29:40;1.80;;;0.60;;
64031;SDS011;50278;47.796;11.968;2023-02-21T16:32:08;1.02;;;0.70;;
64031;SDS011;50278;47.796;11.968;2023-02-21T16:34:42;1.92;;;0.70;;
64031;SDS011;50278;47.796;11.968;2023-02-21T16:37:09;1.27;;;0.60;;
64031;SDS011;50278;47.796;11.968;2023-02-21T16:39:38;1.60;;;0.45;;
64031;SDS011;50278;47.796;11.968;2023-02-21T16:42:05;0.95;;;0.52;;
64031;SDS011;50278;47.796;11.968;2023-02-21T16:44:33;3.05;;;1.33;;
64031;SDS011;50278;47.796;11.968;2023-02-21T16:46:58;3.50;;;2.33;;
64031;SDS011;50278;47.796;11.968;2023-02-21T16:49:24;5.13;;;2.47;;
64031;SDS011;50278;47.796;11.968;2023-02-21T16:51:49;6.07;;;3.42;;
64031;SDS011;50278;47.796;11.968;2023-02-21T16:54:15;2.75;;;2.30;;
64031;SDS011;50278;47.796;11.968;2023-02-21T16:56:42;3.80;;;2.88;;
64031;SDS011;50278;47.796;11.968;2023-02-21T16:59:14;18.73;;;17.00;;
64031;SDS011;50278;47.796;11.968;2023-02-21T17:01:40;9.90;;;9.07;;
64031;SDS011;50278;47.796;11.968;2023-02-21T17:04:14;10.25;;;9.18;;
64031;SDS011;50278;47.796;11.968;2023-02-21T17:06:55;13.43;;;11.10;;
64031;SDS011;50278;47.796;11.968;2023-02-21T17:09:23;8.60;;;5.40;;
64031;SDS011;50278;47.796;11.968;2023-02-21T17:11:51;11.38;;;8.60;;
64031;SDS011;50278;47.796;11.968;2023-02-21T17:14:17;5.53;;;2.58;;
64031;SDS011;50278;47.796;11.968;2023-02-21T17:16:43;3.83;;;2.38;;
64031;SDS011;50278;47.796;11.968;2023-02-21T17:19:10;6.85;;;6.13;;
64031;SDS011;50278;47.796;11.968;2023-02-21T17:21:37;4.25;;;3.53;;
64031;SDS011;50278;47.796;11.968;2023-02-21T17:24:03;3.72;;;3.33;;
64031;SDS011;50278;47.796;11.968;2023-02-21T17:26:28;3.17;;;2.50;;
64031;SDS011;50278;47.796;11.968;2023-02-21T17:28:54;1.95;;;1.33;;
64031;SDS011;50278;47.796;11.968;2023-02-21T17:31:19;2.35;;;1.00;;
64031;SDS011;50278;47.796;11.968;2023-02-21T17:33:44;1.98;;;0.63;;
64031;SDS011;50278;47.796;11.968;2023-02-21T17:36:17;1.30;;;0.82;;
64031;SDS011;50278;47.796;11.968;2023-02-21T17:38:43;1.88;;;0.50;;
64031;SDS011;50278;47.796;11.968;2023-02-21T17:41:09;0.85;;;0.68;;
64031;SDS011;50278;47.796;11.968;2023-02-21T17:43:35;0.82;;;0.45;;
64031;SDS011;50278;47.796;11.968;2023-02-21T17:46:01;1.00;;;0.50;;
64031;SDS011;50278;47.796;11.968;2023-02-21T17:48:26;2.75;;;0.70;;
64031;SDS011;50278;47.796;11.968;2023-02-21T17:50:52;1.95;;;0.80;;
64031;SDS011;50278;47.796;11.968;2023-02-21T17:53:17;1.83;;;0.60;;
64031;SDS011;50278;47.796;11.968;2023-02-21T17:55:42;1.70;;;0.73;;
64031;SDS011;50278;47.796;11.968;2023-02-21T17:58:08;0.70;;;0.40;;
64031;SDS011;50278;47.796;11.968;2023-02-21T18:00:34;1.98;;;0.43;;
64031;SDS011;50278;47.796;11.968;2023-02-21T18:03:00;1.88;;;0.65;;
64031;SDS011;50278;47.796;11.968;2023-02-21T18:05:31;0.95;;;0.50;;
64031;SDS011;50278;47.796;11.968;2023-02-21T18:07:57;3.60;;;0.70;;
64031;SDS011;50278;47.796;11.968;2023-02-21T18:10:23;2.88;;;0.68;;
64031;SDS011;50278;47.796;11.968;2023-02-21T18:12:51;2.35;;;0.50;;
64031;SDS011;50278;47.796;11.968;2023-02-21T18:15:23;1.48;;;0.50;;
64031;SDS011;50278;47.796;11.968;2023-02-21T18:17:54;2.25;;;0.70;;
64031;SDS011;50278;47.796;11.968;2023-02-21T18:20:19;2.97;;;0.80;;
64031;SDS011;50278;47.796;11.968;2023-02-21T18:22:45;1.63;;;0.50;;
64031;SDS011;50278;47.796;11.968;2023-02-21T18:25:11;1.70;;;0.70;;
64031;SDS011;50278;47.796;11.968;2023-02-21T18:27:40;1.00;;;0.40;;
64031;SDS011;50278;47.796;11.968;2023-02-21T18:30:07;4.60;;;4.18;;
64031;SDS011;50278;47.796;11.968;2023-02-21T18:32:33;1.88;;;1.02;;
64031;SDS011;50278;47.796;11.968;2023-02-21T18:34:58;2.67;;;1.30;;
64031;SDS011;50278;47.796;11.968;2023-02-21T18:37:24;2.30;;;0.80;;
64031;SDS011;50278;47.796;11.968;2023-02-21T18:39:51;1.00;;;0.80;;
64031;SDS011;50278;47.796;11.968;2023-02-21T18:42:18;2.05;;;0.60;;
64031;SDS011;50278;47.796;11.968;2023-02-21T18:44:45;1.27;;;0.50;;
64031;SDS011;50278;47.796;11.968;2023-02-21T18:47:11;1.02;;;0.55;;
64031;SDS011;50278;47.796;11.968;2023-02-21T18:49:41;3.00;;;0.73;;
64031;SDS011;50278;47.796;11.968;2023-02-21T18:52:08;1.50;;;0.70;;
64031;SDS011;50278;47.796;11.968;2023-02-21T18:54:34;1.15;;;0.70;;
64031;SDS011;50278;47.796;11.968;2023-02-21T18:57:00;1.13;;;0.75;;
64031;SDS011;50278;47.796;11.968;2023-02-21T18:59:26;3.63;;;0.60;;
64031;SDS011;50278;47.796;11.968;2023-02-21T19:01:52;1.77;;;0.60;;
64031;SDS011;50278;47.796;11.968;2023-02-21T19:04:19;1.17;;;0.60;;
64031;SDS011;50278;47.796;11.968;2023-02-21T19:06:44;0.95;;;0.65;;
64031;SDS011;50278;47.796;11.968;2023-02-21T19:09:10;2.30;;;0.60;;
64031;SDS011;50278;47.796;11.968;2023-02-21T19:11:36;1.58;;;0.60;;
64031;SDS011;50278;47.796;11.968;2023-02-21T19:14:02;2.25;;;0.60;;
64031;SDS011;50278;47.796;11.968;2023-02-21T19:16:29;2.45;;;0.80;;
64031;SDS011;50278;47.796;11.968;2023-02-21T19:18:56;2.08;;;0.63;;
64031;SDS011;50278;47.796;11.968;2023-02-21T19:21:23;2.03;;;0.77;;